Accueil
METAR-TAF:

METAR-TAF

Aéroports :

Aéroport de Mannheim

Mannheim, Allemagne

latitude: 49-28-21N, longitude: 008-30-56E, altitude: 100 m

Observation

Le bulletin a été fait il y a 35 minutes, à 11:50 UTC
Vent 7 kt de nord/nord-est, variant entre ouest/nord-ouest et est
Température 27°C
Humidité 32%
Pression 1017 hPa
Visibilité 10 km ou plus
pas de nuages en-dessous de 1500 mètres et pas de cumulonimbus.

METAR: EDFM 181150Z 02007KT 300V090 CAVOK 27/09 Q1017

Heure: 14:25 (12:25 UTC)

Prévision

Le bulletin a été fait il y a 1 heure et 25 minutes, à 11:00 UTC
Prévision valable du 18 à 12 UTC au 18 à 21 UTC
Vent 8 kt de nord/nord-ouest
Visibilité 10 km ou plus
pas de nuages en-dessous de 1500 mètres et pas de cumulonimbus.
Evoluant progressivement
du 18 à 18 UTC au 18 à 20 UTC
Vent 3 kt de nord/nord-est

TAF: EDFM 181100Z 1812/1821 33008KT CAVOK BECMG 1818/1820 02003KT

Observations et prévisions météorologiques de plus de 4000 aéroports (messages METAR et TAF).

Les stations disponibles sont représentées par des disques jaunes et rouges sur la carte.

Passer la souris dessus pour voir le nom de la station.

Cliquer dessus pour voir les observations et prévisions météorologiques.

Pour changer de carte: cliquez sur les boutons verts avec une croix noire pour zoomer, sur le bouton vert avec un tiret pour effectuer un zoom arrière, ou sur les flèches vertes pour les cartes adjacentes.


METAR-TAF: